sensor_id;sensor_type;location;lat;lon;timestamp;P1;durP1;ratioP1;P2;durP2;ratioP2
51854;SDS011;37895;53.240;6.572;2023-05-24T00:01:15;23.10;;;7.93;;
51854;SDS011;37895;53.240;6.572;2023-05-24T00:03:49;28.05;;;8.30;;
51854;SDS011;37895;53.240;6.572;2023-05-24T00:06:18;27.85;;;8.02;;
51854;SDS011;37895;53.240;6.572;2023-05-24T00:08:44;28.55;;;8.85;;
51854;SDS011;37895;53.240;6.572;2023-05-24T00:11:10;30.13;;;9.32;;
51854;SDS011;37895;53.240;6.572;2023-05-24T00:13:46;27.75;;;8.18;;
51854;SDS011;37895;53.240;6.572;2023-05-24T00:16:17;27.85;;;8.73;;
51854;SDS011;37895;53.240;6.572;2023-05-24T00:18:43;24.38;;;7.82;;
51854;SDS011;37895;53.240;6.572;2023-05-24T00:21:10;30.30;;;9.15;;
51854;SDS011;37895;53.240;6.572;2023-05-24T00:23:37;28.92;;;8.00;;
51854;SDS011;37895;53.240;6.572;2023-05-24T00:26:03;33.03;;;9.15;;
51854;SDS011;37895;53.240;6.572;2023-05-24T00:28:30;22.85;;;8.35;;
51854;SDS011;37895;53.240;6.572;2023-05-24T00:30:56;29.52;;;9.75;;
51854;SDS011;37895;53.240;6.572;2023-05-24T00:33:22;23.52;;;8.93;;
51854;SDS011;37895;53.240;6.572;2023-05-24T00:35:48;23.25;;;7.90;;
51854;SDS011;37895;53.240;6.572;2023-05-24T00:38:20;23.48;;;8.32;;
51854;SDS011;37895;53.240;6.572;2023-05-24T00:40:46;20.65;;;8.15;;
51854;SDS011;37895;53.240;6.572;2023-05-24T00:43:12;26.17;;;8.15;;
51854;SDS011;37895;53.240;6.572;2023-05-24T00:45:38;24.25;;;8.88;;
51854;SDS011;37895;53.240;6.572;2023-05-24T00:48:04;25.10;;;7.25;;
51854;SDS011;37895;53.240;6.572;2023-05-24T00:50:29;26.75;;;8.07;;
51854;SDS011;37895;53.240;6.572;2023-05-24T00:52:55;26.98;;;8.80;;
51854;SDS011;37895;53.240;6.572;2023-05-24T00:55:24;25.65;;;8.10;;
51854;SDS011;37895;53.240;6.572;2023-05-24T00:57:50;23.83;;;7.45;;
51854;SDS011;37895;53.240;6.572;2023-05-24T01:00:17;28.15;;;7.20;;
51854;SDS011;37895;53.240;6.572;2023-05-24T01:02:43;26.92;;;7.82;;
51854;SDS011;37895;53.240;6.572;2023-05-24T01:05:08;21.38;;;7.30;;
51854;SDS011;37895;53.240;6.572;2023-05-24T01:07:44;24.13;;;7.57;;
51854;SDS011;37895;53.240;6.572;2023-05-24T01:13:11;23.83;;;7.68;;
51854;SDS011;37895;53.240;6.572;2023-05-24T01:18:16;21.08;;;6.95;;
51854;SDS011;37895;53.240;6.572;2023-05-24T01:27:06;22.95;;;7.93;;
51854;SDS011;37895;53.240;6.572;2023-05-24T01:29:34;22.17;;;7.10;;
51854;SDS011;37895;53.240;6.572;2023-05-24T01:32:00;25.10;;;8.05;;
51854;SDS011;37895;53.240;6.572;2023-05-24T01:34:27;22.60;;;8.27;;
51854;SDS011;37895;53.240;6.572;2023-05-24T01:36:53;31.50;;;8.27;;
51854;SDS011;37895;53.240;6.572;2023-05-24T01:39:19;20.60;;;8.07;;
51854;SDS011;37895;53.240;6.572;2023-05-24T01:41:49;22.50;;;7.90;;
51854;SDS011;37895;53.240;6.572;2023-05-24T01:47:21;25.42;;;8.52;;
51854;SDS011;37895;53.240;6.572;2023-05-24T01:49:56;24.15;;;8.73;;
51854;SDS011;37895;53.240;6.572;2023-05-24T01:52:40;25.80;;;7.45;;
51854;SDS011;37895;53.240;6.572;2023-05-24T01:55:09;30.92;;;8.32;;
51854;SDS011;37895;53.240;6.572;2023-05-24T01:57:41;28.38;;;8.02;;
51854;SDS011;37895;53.240;6.572;2023-05-24T02:00:10;26.65;;;7.40;;
51854;SDS011;37895;53.240;6.572;2023-05-24T02:02:41;23.58;;;8.30;;
51854;SDS011;37895;53.240;6.572;2023-05-24T02:05:08;24.65;;;8.07;;
51854;SDS011;37895;53.240;6.572;2023-05-24T02:07:34;25.23;;;8.43;;
51854;SDS011;37895;53.240;6.572;2023-05-24T02:09:59;23.48;;;7.90;;
51854;SDS011;37895;53.240;6.572;2023-05-24T02:12:25;21.75;;;7.78;;
51854;SDS011;37895;53.240;6.572;2023-05-24T02:14:51;21.85;;;7.80;;
51854;SDS011;37895;53.240;6.572;2023-05-24T02:17:18;21.75;;;7.25;;
51854;SDS011;37895;53.240;6.572;2023-05-24T02:19:44;21.63;;;7.30;;
51854;SDS011;37895;53.240;6.572;2023-05-24T02:22:09;25.55;;;7.60;;
51854;SDS011;37895;53.240;6.572;2023-05-24T02:24:36;26.08;;;7.50;;
51854;SDS011;37895;53.240;6.572;2023-05-24T02:27:04;23.67;;;7.00;;
51854;SDS011;37895;53.240;6.572;2023-05-24T02:29:30;23.90;;;7.60;;
51854;SDS011;37895;53.240;6.572;2023-05-24T02:31:55;23.23;;;7.90;;
51854;SDS011;37895;53.240;6.572;2023-05-24T02:34:22;23.58;;;7.63;;
51854;SDS011;37895;53.240;6.572;2023-05-24T02:36:48;20.58;;;6.47;;
51854;SDS011;37895;53.240;6.572;2023-05-24T02:45:39;24.20;;;7.40;;
51854;SDS011;37895;53.240;6.572;2023-05-24T02:48:05;19.15;;;7.07;;
51854;SDS011;37895;53.240;6.572;2023-05-24T02:50:31;24.10;;;6.57;;
51854;SDS011;37895;53.240;6.572;2023-05-24T02:52:56;20.10;;;6.77;;
51854;SDS011;37895;53.240;6.572;2023-05-24T02:55:22;23.80;;;5.90;;
51854;SDS011;37895;53.240;6.572;2023-05-24T02:57:47;18.03;;;6.60;;
51854;SDS011;37895;53.240;6.572;2023-05-24T03:00:13;21.17;;;7.47;;
51854;SDS011;37895;53.240;6.572;2023-05-24T03:05:05;17.85;;;6.13;;
51854;SDS011;37895;53.240;6.572;2023-05-24T03:07:31;26.45;;;6.97;;
51854;SDS011;37895;53.240;6.572;2023-05-24T03:09:57;25.90;;;6.47;;
51854;SDS011;37895;53.240;6.572;2023-05-24T03:12:23;23.80;;;7.20;;
51854;SDS011;37895;53.240;6.572;2023-05-24T03:14:49;23.45;;;7.13;;
51854;SDS011;37895;53.240;6.572;2023-05-24T03:17:14;22.80;;;6.60;;
51854;SDS011;37895;53.240;6.572;2023-05-24T03:19:40;22.80;;;6.65;;
51854;SDS011;37895;53.240;6.572;2023-05-24T03:22:06;22.30;;;7.55;;
51854;SDS011;37895;53.240;6.572;2023-05-24T03:24:31;26.90;;;7.72;;
51854;SDS011;37895;53.240;6.572;2023-05-24T03:29:23;21.55;;;6.95;;
51854;SDS011;37895;53.240;6.572;2023-05-24T03:31:49;23.33;;;5.97;;
51854;SDS011;37895;53.240;6.572;2023-05-24T03:34:15;27.08;;;7.55;;
51854;SDS011;37895;53.240;6.572;2023-05-24T03:36:40;32.57;;;7.50;;
51854;SDS011;37895;53.240;6.572;2023-05-24T03:39:06;23.38;;;6.70;;
51854;SDS011;37895;53.240;6.572;2023-05-24T03:41:32;22.10;;;7.07;;
51854;SDS011;37895;53.240;6.572;2023-05-24T03:44:00;22.60;;;6.53;;
51854;SDS011;37895;53.240;6.572;2023-05-24T03:46:32;21.38;;;6.50;;
51854;SDS011;37895;53.240;6.572;2023-05-24T03:48:58;25.10;;;6.55;;
51854;SDS011;37895;53.240;6.572;2023-05-24T03:51:23;25.10;;;6.93;;
51854;SDS011;37895;53.240;6.572;2023-05-24T03:53:53;25.25;;;6.78;;
51854;SDS011;37895;53.240;6.572;2023-05-24T03:56:20;27.08;;;6.90;;
51854;SDS011;37895;53.240;6.572;2023-05-24T03:58:46;24.17;;;6.75;;
51854;SDS011;37895;53.240;6.572;2023-05-24T04:01:12;27.25;;;6.85;;
51854;SDS011;37895;53.240;6.572;2023-05-24T04:03:37;26.50;;;6.97;;
51854;SDS011;37895;53.240;6.572;2023-05-24T04:06:12;20.13;;;6.18;;
51854;SDS011;37895;53.240;6.572;2023-05-24T04:08:39;28.48;;;7.55;;
51854;SDS011;37895;53.240;6.572;2023-05-24T04:11:05;27.05;;;6.78;;
51854;SDS011;37895;53.240;6.572;2023-05-24T04:13:31;25.13;;;7.57;;
51854;SDS011;37895;53.240;6.572;2023-05-24T04:15:57;23.65;;;6.55;;
51854;SDS011;37895;53.240;6.572;2023-05-24T04:18:22;25.50;;;7.43;;
51854;SDS011;37895;53.240;6.572;2023-05-24T04:20:48;22.70;;;7.75;;
51854;SDS011;37895;53.240;6.572;2023-05-24T04:23:13;22.60;;;6.93;;
51854;SDS011;37895;53.240;6.572;2023-05-24T04:25:39;25.23;;;7.63;;
51854;SDS011;37895;53.240;6.572;2023-05-24T04:28:05;27.80;;;7.55;;
51854;SDS011;37895;53.240;6.572;2023-05-24T04:30:30;25.05;;;6.53;;
51854;SDS011;37895;53.240;6.572;2023-05-24T04:32:56;27.35;;;7.30;;
51854;SDS011;37895;53.240;6.572;2023-05-24T04:35:23;23.33;;;6.95;;
51854;SDS011;37895;53.240;6.572;2023-05-24T04:37:49;23.10;;;7.40;;
51854;SDS011;37895;53.240;6.572;2023-05-24T04:40:18;23.00;;;7.55;;
51854;SDS011;37895;53.240;6.572;2023-05-24T04:42:45;25.88;;;7.50;;
51854;SDS011;37895;53.240;6.572;2023-05-24T04:45:10;23.90;;;7.85;;
51854;SDS011;37895;53.240;6.572;2023-05-24T04:47:37;22.27;;;7.05;;
51854;SDS011;37895;53.240;6.572;2023-05-24T04:50:03;27.08;;;7.97;;
51854;SDS011;37895;53.240;6.572;2023-05-24T04:52:29;23.55;;;6.80;;
51854;SDS011;37895;53.240;6.572;2023-05-24T04:54:55;20.95;;;7.03;;
51854;SDS011;37895;53.240;6.572;2023-05-24T04:57:22;21.73;;;6.55;;
51854;SDS011;37895;53.240;6.572;2023-05-24T04:59:47;22.38;;;6.20;;
51854;SDS011;37895;53.240;6.572;2023-05-24T05:02:13;21.60;;;6.47;;
51854;SDS011;37895;53.240;6.572;2023-05-24T05:04:39;26.27;;;7.55;;
51854;SDS011;37895;53.240;6.572;2023-05-24T05:07:04;22.73;;;6.82;;
51854;SDS011;37895;53.240;6.572;2023-05-24T05:09:30;28.13;;;7.20;;
51854;SDS011;37895;53.240;6.572;2023-05-24T05:11:56;29.13;;;7.40;;
51854;SDS011;37895;53.240;6.572;2023-05-24T05:14:22;20.00;;;7.25;;
51854;SDS011;37895;53.240;6.572;2023-05-24T05:16:48;21.60;;;6.80;;
51854;SDS011;37895;53.240;6.572;2023-05-24T05:19:13;27.08;;;8.10;;
51854;SDS011;37895;53.240;6.572;2023-05-24T05:24:05;22.92;;;7.47;;
51854;SDS011;37895;53.240;6.572;2023-05-24T05:26:31;28.83;;;7.53;;
51854;SDS011;37895;53.240;6.572;2023-05-24T05:28:56;24.50;;;7.93;;
51854;SDS011;37895;53.240;6.572;2023-05-24T05:31:22;23.00;;;6.53;;
51854;SDS011;37895;53.240;6.572;2023-05-24T05:33:48;26.67;;;7.43;;
51854;SDS011;37895;53.240;6.572;2023-05-24T05:36:14;21.17;;;6.82;;
51854;SDS011;37895;53.240;6.572;2023-05-24T05:38:40;23.25;;;7.07;;
51854;SDS011;37895;53.240;6.572;2023-05-24T05:41:05;19.00;;;5.85;;
51854;SDS011;37895;53.240;6.572;2023-05-24T05:43:31;23.42;;;7.43;;
51854;SDS011;37895;53.240;6.572;2023-05-24T05:45:57;26.33;;;8.05;;
51854;SDS011;37895;53.240;6.572;2023-05-24T05:48:24;20.08;;;7.15;;
51854;SDS011;37895;53.240;6.572;2023-05-24T05:50:50;27.15;;;7.30;;
51854;SDS011;37895;53.240;6.572;2023-05-24T05:53:15;23.93;;;6.63;;
51854;SDS011;37895;53.240;6.572;2023-05-24T05:55:41;28.73;;;7.60;;
51854;SDS011;37895;53.240;6.572;2023-05-24T05:58:06;27.95;;;7.32;;
51854;SDS011;37895;53.240;6.572;2023-05-24T06:00:32;22.52;;;7.20;;
51854;SDS011;37895;53.240;6.572;2023-05-24T06:02:58;21.05;;;6.65;;
51854;SDS011;37895;53.240;6.572;2023-05-24T06:05:23;25.02;;;7.30;;
51854;SDS011;37895;53.240;6.572;2023-05-24T06:07:49;28.92;;;6.78;;
51854;SDS011;37895;53.240;6.572;2023-05-24T06:10:15;18.80;;;6.30;;
51854;SDS011;37895;53.240;6.572;2023-05-24T06:12:40;21.00;;;6.15;;
51854;SDS011;37895;53.240;6.572;2023-05-24T06:15:06;20.98;;;5.75;;
51854;SDS011;37895;53.240;6.572;2023-05-24T06:17:33;17.52;;;6.07;;
51854;SDS011;37895;53.240;6.572;2023-05-24T06:19:59;16.25;;;5.32;;
51854;SDS011;37895;53.240;6.572;2023-05-24T06:22:24;16.38;;;5.07;;
51854;SDS011;37895;53.240;6.572;2023-05-24T06:28:14;14.57;;;5.70;;
51854;SDS011;37895;53.240;6.572;2023-05-24T06:30:39;13.77;;;5.50;;
51854;SDS011;37895;53.240;6.572;2023-05-24T06:36:27;12.40;;;4.75;;
51854;SDS011;37895;53.240;6.572;2023-05-24T06:38:53;15.45;;;5.32;;
51854;SDS011;37895;53.240;6.572;2023-05-24T06:41:22;18.90;;;6.28;;
51854;SDS011;37895;53.240;6.572;2023-05-24T06:43:47;16.40;;;4.97;;
51854;SDS011;37895;53.240;6.572;2023-05-24T06:46:13;15.40;;;5.30;;
51854;SDS011;37895;53.240;6.572;2023-05-24T06:48:39;17.42;;;5.10;;
51854;SDS011;37895;53.240;6.572;2023-05-24T06:51:04;19.60;;;6.53;;
51854;SDS011;37895;53.240;6.572;2023-05-24T06:53:30;18.05;;;5.53;;
51854;SDS011;37895;53.240;6.572;2023-05-24T06:55:55;20.27;;;6.22;;
51854;SDS011;37895;53.240;6.572;2023-05-24T06:58:21;18.15;;;5.47;;
51854;SDS011;37895;53.240;6.572;2023-05-24T07:00:47;15.52;;;4.85;;
51854;SDS011;37895;53.240;6.572;2023-05-24T07:03:14;21.23;;;6.03;;
51854;SDS011;37895;53.240;6.572;2023-05-24T07:05:39;18.60;;;5.65;;
51854;SDS011;37895;53.240;6.572;2023-05-24T07:08:05;15.48;;;4.90;;
51854;SDS011;37895;53.240;6.572;2023-05-24T07:10:31;16.20;;;4.90;;
51854;SDS011;37895;53.240;6.572;2023-05-24T07:12:56;18.25;;;5.30;;
51854;SDS011;37895;53.240;6.572;2023-05-24T07:15:22;17.77;;;5.90;;
51854;SDS011;37895;53.240;6.572;2023-05-24T07:17:48;16.93;;;5.70;;
51854;SDS011;37895;53.240;6.572;2023-05-24T07:20:13;19.92;;;5.95;;
51854;SDS011;37895;53.240;6.572;2023-05-24T07:22:39;18.48;;;5.43;;
51854;SDS011;37895;53.240;6.572;2023-05-24T07:25:05;19.42;;;6.13;;
51854;SDS011;37895;53.240;6.572;2023-05-24T07:27:31;17.35;;;5.30;;
51854;SDS011;37895;53.240;6.572;2023-05-24T07:29:57;21.27;;;6.60;;
51854;SDS011;37895;53.240;6.572;2023-05-24T07:32:22;14.23;;;5.18;;
51854;SDS011;37895;53.240;6.572;2023-05-24T07:34:48;17.58;;;5.70;;
51854;SDS011;37895;53.240;6.572;2023-05-24T07:37:14;14.80;;;5.53;;
51854;SDS011;37895;53.240;6.572;2023-05-24T07:42:44;19.25;;;5.90;;
51854;SDS011;37895;53.240;6.572;2023-05-24T07:45:11;17.00;;;5.93;;
51854;SDS011;37895;53.240;6.572;2023-05-24T07:47:38;15.57;;;5.18;;
51854;SDS011;37895;53.240;6.572;2023-05-24T07:50:04;16.13;;;5.80;;
51854;SDS011;37895;53.240;6.572;2023-05-24T07:52:30;11.93;;;4.40;;
51854;SDS011;37895;53.240;6.572;2023-05-24T07:57:40;11.88;;;4.75;;
51854;SDS011;37895;53.240;6.572;2023-05-24T08:00:05;12.13;;;4.85;;
51854;SDS011;37895;53.240;6.572;2023-05-24T08:02:38;11.48;;;3.90;;
51854;SDS011;37895;53.240;6.572;2023-05-24T08:05:09;10.80;;;3.75;;
51854;SDS011;37895;53.240;6.572;2023-05-24T08:07:39;10.07;;;4.30;;
51854;SDS011;37895;53.240;6.572;2023-05-24T08:10:06;9.13;;;3.40;;
51854;SDS011;37895;53.240;6.572;2023-05-24T08:12:33;10.77;;;3.70;;
51854;SDS011;37895;53.240;6.572;2023-05-24T08:14:59;12.82;;;4.13;;
51854;SDS011;37895;53.240;6.572;2023-05-24T08:17:25;10.43;;;4.18;;
51854;SDS011;37895;53.240;6.572;2023-05-24T08:19:51;11.80;;;4.25;;
51854;SDS011;37895;53.240;6.572;2023-05-24T08:22:17;12.48;;;3.75;;
51854;SDS011;37895;53.240;6.572;2023-05-24T08:24:43;11.10;;;4.18;;
51854;SDS011;37895;53.240;6.572;2023-05-24T08:27:09;11.73;;;3.70;;
51854;SDS011;37895;53.240;6.572;2023-05-24T08:29:35;12.60;;;4.18;;
51854;SDS011;37895;53.240;6.572;2023-05-24T08:32:01;11.30;;;4.03;;
51854;SDS011;37895;53.240;6.572;2023-05-24T08:34:27;13.00;;;4.18;;
51854;SDS011;37895;53.240;6.572;2023-05-24T08:36:53;10.00;;;4.43;;
51854;SDS011;37895;53.240;6.572;2023-05-24T08:41:45;9.95;;;4.03;;
51854;SDS011;37895;53.240;6.572;2023-05-24T08:44:11;13.85;;;4.65;;
51854;SDS011;37895;53.240;6.572;2023-05-24T08:49:03;14.55;;;5.43;;
51854;SDS011;37895;53.240;6.572;2023-05-24T08:51:29;12.15;;;4.40;;
51854;SDS011;37895;53.240;6.572;2023-05-24T08:53:58;9.05;;;3.78;;
51854;SDS011;37895;53.240;6.572;2023-05-24T08:56:25;15.25;;;4.65;;
51854;SDS011;37895;53.240;6.572;2023-05-24T08:58:53;13.45;;;4.85;;
51854;SDS011;37895;53.240;6.572;2023-05-24T09:01:19;13.02;;;4.28;;
51854;SDS011;37895;53.240;6.572;2023-05-24T09:03:46;17.77;;;5.30;;
51854;SDS011;37895;53.240;6.572;2023-05-24T09:08:40;12.45;;;4.38;;
51854;SDS011;37895;53.240;6.572;2023-05-24T09:11:07;14.38;;;4.82;;
51854;SDS011;37895;53.240;6.572;2023-05-24T09:13:33;15.93;;;5.10;;
51854;SDS011;37895;53.240;6.572;2023-05-24T09:16:00;16.02;;;4.53;;
51854;SDS011;37895;53.240;6.572;2023-05-24T09:18:26;13.15;;;4.55;;
51854;SDS011;37895;53.240;6.572;2023-05-24T09:23:18;10.77;;;4.72;;
51854;SDS011;37895;53.240;6.572;2023-05-24T09:25:44;18.02;;;5.10;;
51854;SDS011;37895;53.240;6.572;2023-05-24T09:28:12;15.38;;;4.95;;
51854;SDS011;37895;53.240;6.572;2023-05-24T09:30:42;13.02;;;4.30;;
51854;SDS011;37895;53.240;6.572;2023-05-24T09:33:09;9.82;;;4.53;;
51854;SDS011;37895;53.240;6.572;2023-05-24T09:35:36;17.17;;;5.40;;
51854;SDS011;37895;53.240;6.572;2023-05-24T09:38:05;20.23;;;5.20;;
51854;SDS011;37895;53.240;6.572;2023-05-24T09:40:32;15.77;;;5.18;;
51854;SDS011;37895;53.240;6.572;2023-05-24T09:43:07;13.68;;;5.43;;
51854;SDS011;37895;53.240;6.572;2023-05-24T09:45:40;14.60;;;5.13;;
51854;SDS011;37895;53.240;6.572;2023-05-24T09:48:11;15.23;;;5.10;;
51854;SDS011;37895;53.240;6.572;2023-05-24T09:50:41;13.40;;;5.00;;
51854;SDS011;37895;53.240;6.572;2023-05-24T09:53:10;13.90;;;5.07;;
51854;SDS011;37895;53.240;6.572;2023-05-24T09:55:36;10.85;;;4.25;;
51854;SDS011;37895;53.240;6.572;2023-05-24T10:00:30;15.88;;;4.18;;
51854;SDS011;37895;53.240;6.572;2023-05-24T10:03:01;12.93;;;4.38;;
51854;SDS011;37895;53.240;6.572;2023-05-24T10:05:28;14.38;;;4.75;;
51854;SDS011;37895;53.240;6.572;2023-05-24T10:07:56;12.18;;;4.28;;
51854;SDS011;37895;53.240;6.572;2023-05-24T10:10:23;11.98;;;4.93;;
51854;SDS011;37895;53.240;6.572;2023-05-24T10:12:57;14.30;;;4.40;;
51854;SDS011;37895;53.240;6.572;2023-05-24T10:15:24;15.60;;;4.95;;
51854;SDS011;37895;53.240;6.572;2023-05-24T10:17:52;10.30;;;4.20;;
51854;SDS011;37895;53.240;6.572;2023-05-24T10:20:20;13.80;;;4.78;;
51854;SDS011;37895;53.240;6.572;2023-05-24T10:22:47;11.95;;;4.18;;
51854;SDS011;37895;53.240;6.572;2023-05-24T10:25:20;16.15;;;4.60;;
51854;SDS011;37895;53.240;6.572;2023-05-24T10:27:49;12.40;;;4.95;;
51854;SDS011;37895;53.240;6.572;2023-05-24T10:33:00;12.65;;;4.78;;
51854;SDS011;37895;53.240;6.572;2023-05-24T10:35:26;17.88;;;5.32;;
51854;SDS011;37895;53.240;6.572;2023-05-24T10:37:53;18.67;;;5.35;;
51854;SDS011;37895;53.240;6.572;2023-05-24T10:40:19;13.27;;;4.80;;
51854;SDS011;37895;53.240;6.572;2023-05-24T10:42:49;16.00;;;5.60;;
51854;SDS011;37895;53.240;6.572;2023-05-24T10:50:37;20.88;;;5.90;;
51854;SDS011;37895;53.240;6.572;2023-05-24T10:53:13;13.73;;;5.20;;
51854;SDS011;37895;53.240;6.572;2023-05-24T10:55:55;15.35;;;5.47;;
51854;SDS011;37895;53.240;6.572;2023-05-24T11:01:27;15.05;;;5.03;;
51854;SDS011;37895;53.240;6.572;2023-05-24T11:10:40;14.75;;;5.47;;
51854;SDS011;37895;53.240;6.572;2023-05-24T11:13:06;13.73;;;4.82;;
51854;SDS011;37895;53.240;6.572;2023-05-24T11:15:33;16.17;;;4.85;;
51854;SDS011;37895;53.240;6.572;2023-05-24T11:20:34;16.15;;;4.90;;
51854;SDS011;37895;53.240;6.572;2023-05-24T11:23:03;14.93;;;4.80;;
51854;SDS011;37895;53.240;6.572;2023-05-24T11:25:31;9.75;;;4.13;;
51854;SDS011;37895;53.240;6.572;2023-05-24T11:27:59;12.57;;;3.97;;
51854;SDS011;37895;53.240;6.572;2023-05-24T11:30:25;11.70;;;4.05;;
51854;SDS011;37895;53.240;6.572;2023-05-24T11:32:51;12.65;;;4.07;;
51854;SDS011;37895;53.240;6.572;2023-05-24T11:35:17;10.35;;;4.05;;
51854;SDS011;37895;53.240;6.572;2023-05-24T11:37:44;16.52;;;4.10;;
51854;SDS011;37895;53.240;6.572;2023-05-24T11:40:09;13.90;;;4.28;;
51854;SDS011;37895;53.240;6.572;2023-05-24T11:45:02;15.13;;;4.53;;
51854;SDS011;37895;53.240;6.572;2023-05-24T11:47:33;13.18;;;4.35;;
51854;SDS011;37895;53.240;6.572;2023-05-24T11:50:00;17.40;;;4.85;;
51854;SDS011;37895;53.240;6.572;2023-05-24T11:52:26;14.68;;;4.55;;
51854;SDS011;37895;53.240;6.572;2023-05-24T11:54:52;18.98;;;5.00;;
51854;SDS011;37895;53.240;6.572;2023-05-24T11:57:20;12.93;;;4.50;;
51854;SDS011;37895;53.240;6.572;2023-05-24T12:00:00;12.98;;;4.68;;
51854;SDS011;37895;53.240;6.572;2023-05-24T12:02:28;12.60;;;4.35;;
51854;SDS011;37895;53.240;6.572;2023-05-24T12:04:54;16.08;;;4.20;;
51854;SDS011;37895;53.240;6.572;2023-05-24T12:07:29;17.08;;;4.70;;
51854;SDS011;37895;53.240;6.572;2023-05-24T12:09:55;8.68;;;3.45;;
51854;SDS011;37895;53.240;6.572;2023-05-24T12:12:21;11.40;;;4.13;;
51854;SDS011;37895;53.240;6.572;2023-05-24T12:14:47;13.27;;;4.63;;
51854;SDS011;37895;53.240;6.572;2023-05-24T12:17:13;14.65;;;4.65;;
51854;SDS011;37895;53.240;6.572;2023-05-24T12:19:42;11.52;;;4.30;;
51854;SDS011;37895;53.240;6.572;2023-05-24T12:22:08;13.93;;;4.60;;
51854;SDS011;37895;53.240;6.572;2023-05-24T12:27:02;16.77;;;4.43;;
51854;SDS011;37895;53.240;6.572;2023-05-24T12:29:34;12.98;;;4.65;;
51854;SDS011;37895;53.240;6.572;2023-05-24T12:32:05;16.35;;;4.70;;
51854;SDS011;37895;53.240;6.572;2023-05-24T12:34:36;13.48;;;4.72;;
51854;SDS011;37895;53.240;6.572;2023-05-24T12:37:02;14.32;;;4.63;;
51854;SDS011;37895;53.240;6.572;2023-05-24T12:39:37;14.70;;;4.93;;
51854;SDS011;37895;53.240;6.572;2023-05-24T12:45:26;14.50;;;4.53;;
51854;SDS011;37895;53.240;6.572;2023-05-24T12:47:52;14.48;;;4.93;;
51854;SDS011;37895;53.240;6.572;2023-05-24T12:50:20;17.27;;;4.28;;
51854;SDS011;37895;53.240;6.572;2023-05-24T12:52:47;10.27;;;4.15;;
51854;SDS011;37895;53.240;6.572;2023-05-24T12:55:17;13.77;;;3.97;;
51854;SDS011;37895;53.240;6.572;2023-05-24T12:57:45;10.60;;;4.32;;
51854;SDS011;37895;53.240;6.572;2023-05-24T13:00:26;10.30;;;4.22;;
51854;SDS011;37895;53.240;6.572;2023-05-24T13:02:56;7.47;;;3.40;;
51854;SDS011;37895;53.240;6.572;2023-05-24T13:05:23;15.18;;;3.85;;
51854;SDS011;37895;53.240;6.572;2023-05-24T13:07:51;13.80;;;4.70;;
51854;SDS011;37895;53.240;6.572;2023-05-24T13:10:19;15.30;;;4.10;;
51854;SDS011;37895;53.240;6.572;2023-05-24T13:12:45;12.85;;;4.00;;
51854;SDS011;37895;53.240;6.572;2023-05-24T13:17:37;9.77;;;3.83;;
51854;SDS011;37895;53.240;6.572;2023-05-24T13:20:04;12.90;;;3.58;;
51854;SDS011;37895;53.240;6.572;2023-05-24T13:22:34;10.48;;;3.55;;
51854;SDS011;37895;53.240;6.572;2023-05-24T13:25:01;13.82;;;4.18;;
51854;SDS011;37895;53.240;6.572;2023-05-24T13:27:27;12.77;;;4.30;;
51854;SDS011;37895;53.240;6.572;2023-05-24T13:29:53;13.75;;;4.93;;
51854;SDS011;37895;53.240;6.572;2023-05-24T13:32:20;9.23;;;4.20;;
51854;SDS011;37895;53.240;6.572;2023-05-24T13:43:58;9.90;;;4.28;;
51854;SDS011;37895;53.240;6.572;2023-05-24T13:46:23;11.52;;;4.32;;
51854;SDS011;37895;53.240;6.572;2023-05-24T13:48:49;11.90;;;4.18;;
51854;SDS011;37895;53.240;6.572;2023-05-24T13:51:15;16.08;;;4.90;;
51854;SDS011;37895;53.240;6.572;2023-05-24T13:53:43;11.85;;;4.68;;
51854;SDS011;37895;53.240;6.572;2023-05-24T13:56:10;13.85;;;4.82;;
51854;SDS011;37895;53.240;6.572;2023-05-24T13:58:36;10.73;;;3.90;;
51854;SDS011;37895;53.240;6.572;2023-05-24T14:01:01;10.05;;;3.67;;
51854;SDS011;37895;53.240;6.572;2023-05-24T14:03:27;12.95;;;3.50;;
51854;SDS011;37895;53.240;6.572;2023-05-24T14:05:53;10.32;;;3.83;;
51854;SDS011;37895;53.240;6.572;2023-05-24T14:08:18;8.48;;;3.38;;
51854;SDS011;37895;53.240;6.572;2023-05-24T14:10:44;11.57;;;4.15;;
51854;SDS011;37895;53.240;6.572;2023-05-24T14:13:13;12.68;;;4.15;;
51854;SDS011;37895;53.240;6.572;2023-05-24T14:18:06;13.27;;;3.80;;
51854;SDS011;37895;53.240;6.572;2023-05-24T14:20:32;9.38;;;3.83;;
51854;SDS011;37895;53.240;6.572;2023-05-24T14:23:00;11.77;;;4.18;;
51854;SDS011;37895;53.240;6.572;2023-05-24T14:25:26;12.60;;;4.32;;
51854;SDS011;37895;53.240;6.572;2023-05-24T14:27:52;11.50;;;4.20;;
51854;SDS011;37895;53.240;6.572;2023-05-24T14:30:18;10.10;;;3.17;;
51854;SDS011;37895;53.240;6.572;2023-05-24T14:32:44;8.48;;;3.42;;
51854;SDS011;37895;53.240;6.572;2023-05-24T14:35:10;9.73;;;3.60;;
51854;SDS011;37895;53.240;6.572;2023-05-24T14:37:36;11.27;;;4.55;;
51854;SDS011;37895;53.240;6.572;2023-05-24T14:40:03;11.93;;;4.05;;
51854;SDS011;37895;53.240;6.572;2023-05-24T14:42:32;10.05;;;3.75;;
51854;SDS011;37895;53.240;6.572;2023-05-24T14:44:58;8.18;;;3.78;;
51854;SDS011;37895;53.240;6.572;2023-05-24T14:47:23;9.73;;;4.13;;
51854;SDS011;37895;53.240;6.572;2023-05-24T14:49:49;10.82;;;4.10;;
51854;SDS011;37895;53.240;6.572;2023-05-24T14:52:15;8.20;;;3.72;;
51854;SDS011;37895;53.240;6.572;2023-05-24T14:54:41;8.95;;;3.25;;
51854;SDS011;37895;53.240;6.572;2023-05-24T14:57:07;11.05;;;3.88;;
51854;SDS011;37895;53.240;6.572;2023-05-24T14:59:32;10.40;;;3.90;;
51854;SDS011;37895;53.240;6.572;2023-05-24T15:01:58;10.70;;;3.97;;
51854;SDS011;37895;53.240;6.572;2023-05-24T15:04:24;8.70;;;3.80;;
51854;SDS011;37895;53.240;6.572;2023-05-24T15:06:51;12.15;;;3.80;;
51854;SDS011;37895;53.240;6.572;2023-05-24T15:09:16;10.30;;;3.60;;
51854;SDS011;37895;53.240;6.572;2023-05-24T15:14:08;10.23;;;3.63;;
51854;SDS011;37895;53.240;6.572;2023-05-24T15:16:34;12.38;;;4.03;;
51854;SDS011;37895;53.240;6.572;2023-05-24T15:19:00;8.50;;;3.90;;
51854;SDS011;37895;53.240;6.572;2023-05-24T15:21:26;8.50;;;3.42;;
51854;SDS011;37895;53.240;6.572;2023-05-24T15:23:52;10.80;;;3.92;;
51854;SDS011;37895;53.240;6.572;2023-05-24T15:26:17;9.63;;;3.45;;
51854;SDS011;37895;53.240;6.572;2023-05-24T15:28:43;7.65;;;3.55;;
51854;SDS011;37895;53.240;6.572;2023-05-24T15:31:09;11.07;;;4.00;;
51854;SDS011;37895;53.240;6.572;2023-05-24T15:33:36;13.40;;;3.80;;
51854;SDS011;37895;53.240;6.572;2023-05-24T15:36:02;10.50;;;3.67;;
51854;SDS011;37895;53.240;6.572;2023-05-24T15:38:28;10.65;;;3.97;;
51854;SDS011;37895;53.240;6.572;2023-05-24T15:40:55;10.50;;;3.70;;
51854;SDS011;37895;53.240;6.572;2023-05-24T15:43:20;10.27;;;3.83;;
51854;SDS011;37895;53.240;6.572;2023-05-24T15:45:47;9.85;;;3.83;;
51854;SDS011;37895;53.240;6.572;2023-05-24T15:48:13;8.63;;;3.95;;
51854;SDS011;37895;53.240;6.572;2023-05-24T15:50:42;9.15;;;3.30;;
51854;SDS011;37895;53.240;6.572;2023-05-24T15:53:08;14.40;;;3.92;;
51854;SDS011;37895;53.240;6.572;2023-05-24T15:55:35;7.82;;;3.38;;
51854;SDS011;37895;53.240;6.572;2023-05-24T15:58:05;12.15;;;4.03;;
51854;SDS011;37895;53.240;6.572;2023-05-24T16:00:30;11.68;;;3.67;;
51854;SDS011;37895;53.240;6.572;2023-05-24T16:02:57;9.80;;;4.00;;
51854;SDS011;37895;53.240;6.572;2023-05-24T16:05:23;8.95;;;3.80;;
51854;SDS011;37895;53.240;6.572;2023-05-24T16:07:50;9.32;;;4.10;;
51854;SDS011;37895;53.240;6.572;2023-05-24T16:10:16;8.15;;;4.22;;
51854;SDS011;37895;53.240;6.572;2023-05-24T16:12:42;8.50;;;3.78;;